Thursday, July 19, 2018, 1:23 PM EDT
Back to Local

KABE, Lehigh Valley International Airport

Location: Allentown, PA, United States Lat: 40.65
Local Time: 1:23 PM EDT (17:23 GMT) Lon: -75.45
Time Zone: US/Eastern Elev: 393 ft

Show me the last for .
Show Decoded

2018-07-19 12:51 METAR KABE 191651Z A3011 RMK AO2 SLPNO $ =
2018-07-19 11:51 METAR KABE 191551Z A3012 RMK AO2 SLPNO $ =
2018-07-19 11:03 METAR KABE 191503Z A3012 RMK AO2 $ =
2018-07-19 11:01 METAR KABE 191501Z 09033KT 10SM CLR 23/12 A3013 RMK AO2 T02280122 $ =
2018-07-19 10:51 METAR KABE 191451Z A3012 RMK AO2 SLPNO 51007 $ =
2018-07-19 09:51 METAR KABE 191351Z VRB06KT 10SM CLR 23/11 A3013 RMK AO2 SLP199 T02280111 =
2018-07-19 08:51 METAR KABE 191251Z 00000KT 10SM CLR 20/11 A3012 RMK AO2 SLP198 T02000106 =
2018-07-19 07:51 METAR KABE 191151Z 00000KT 10SM CLR 17/10 A3011 RMK AO2 SLP192 T01720100 10172
                 20122 51013 =
2018-07-19 06:51 METAR KABE 191051Z 00000KT 10SM CLR 14/11 A3009 RMK AO2 SLP188 T01440111 =
2018-07-19 05:51 METAR KABE 190951Z 27004KT 10SM CLR 13/09 A3009 RMK AO2 SLP186 T01330089 =
2018-07-19 04:51 METAR KABE 190851Z 26005KT 10SM CLR 13/09 A3007 RMK AO2 SLP180 T01330094 53005 =
2018-07-19 03:51 METAR KABE 190751Z AUTO 00000KT 10SM CLR 14/09 A3006 RMK AO2 SLP176 T01440094 =
2018-07-19 02:51 METAR KABE 190651Z 00000KT 10SM CLR 16/09 A3005 RMK AO2 SLP174 T01560094 =
2018-07-19 01:51 METAR KABE 190551Z 31005KT 10SM CLR 17/11 A3005 RMK AO2 SLP174 T01670106 10250
                 20161 53013 =
2018-07-19 00:51 METAR KABE 190451Z 32004KT 10SM CLR 18/11 A3003 RMK AO2 SLP167 T01780106
                 402940172 =
2018-07-18 23:51 METAR KABE 190351Z 33004KT 10SM CLR 18/11 A3002 RMK AO2 SLP164 T01830111 =
2018-07-18 22:51 METAR KABE 190251Z 32003KT 10SM CLR 20/11 A3001 RMK AO2 SLP161 T02000111 51019 =
2018-07-18 21:51 METAR KABE 190151Z 35004KT 10SM CLR 21/12 A3000 RMK AO2 SLP155 T02110117 =
2018-07-18 20:51 METAR KABE 190051Z 36004KT 10SM CLR 22/12 A2998 RMK AO2 SLP148 T02220122 =
2018-07-18 19:51 METAR KABE 182351Z 35007KT 10SM CLR 26/12 A2996 RMK AO2 SLP142 T02560117 10294
                 20256 53008 =
2018-07-18 18:51 METAR KABE 182251Z 34009KT 10SM CLR 27/12 A2994 RMK AO2 SLP136 T02720122 =
2018-07-18 17:51 METAR KABE 182151Z AUTO 33011KT 10SM FEW070 28/12 A2993 RMK AO2 SLP133 T02830117
                 =
2018-07-18 16:51 METAR KABE 182051Z 33008KT 10SM CLR 29/12 A2993 RMK AO2 SLP134 T02890117 58002 =
2018-07-18 15:51 METAR KABE 181951Z 31007KT 10SM FEW065 29/13 A2994 RMK AO2 SLP134 T02890128 =
2018-07-18 14:51 METAR KABE 181851Z 36010KT 10SM FEW080 29/13 A2995 RMK AO2 SLP137 T02940128 =
2018-07-18 13:51 METAR KABE 181751Z 33009G17KT 10SM SCT070 28/14 A2994 RMK AO2 SLP136 T02830139
                 10289 20206 55004 =

Support USWX by starting your Amazon purchase here.